createdAt,value
2022-08-12T00:00:17.486Z,522.00
2022-08-12T00:00:47.522Z,523.00
2022-08-12T00:01:17.550Z,522.00
2022-08-12T00:02:03.917Z,522.00
2022-08-12T00:02:17.654Z,523.00
2022-08-12T00:02:47.732Z,523.00
2022-08-12T00:03:20.723Z,523.00
2022-08-12T00:03:47.785Z,523.00
2022-08-12T00:04:17.815Z,523.00
2022-08-12T00:04:47.860Z,524.00
2022-08-12T00:05:17.887Z,522.00
2022-08-12T00:06:01.879Z,524.00
2022-08-12T00:06:17.971Z,524.00
2022-08-12T00:06:48.008Z,525.00
2022-08-12T00:07:18.041Z,525.00
2022-08-12T00:07:48.072Z,523.00
2022-08-12T00:08:28.919Z,525.00
2022-08-12T00:08:48.547Z,525.00
2022-08-12T00:09:19.509Z,525.00
2022-08-12T00:09:49.376Z,526.00
2022-08-12T00:10:18.429Z,528.00
2022-08-12T00:10:48.473Z,529.00
2022-08-12T00:11:18.537Z,528.00
2022-08-12T00:11:48.654Z,528.00
2022-08-12T00:12:18.657Z,529.00
2022-08-12T00:12:48.693Z,529.00
2022-08-12T00:13:18.699Z,529.00
2022-08-12T00:13:48.701Z,530.00
2022-08-12T00:14:18.695Z,531.00
2022-08-12T00:14:48.818Z,531.00
2022-08-12T00:15:18.819Z,530.00
2022-08-12T00:15:48.819Z,528.00
2022-08-12T00:16:18.838Z,530.00
2022-08-12T00:16:48.840Z,530.00
2022-08-12T00:17:18.834Z,529.00
2022-08-12T00:17:48.953Z,529.00
2022-08-12T00:18:19.068Z,529.00
2022-08-12T00:18:49.067Z,528.00
2022-08-12T00:19:19.070Z,528.00
2022-08-12T00:19:49.111Z,528.00
2022-08-12T00:20:19.109Z,528.00
2022-08-12T00:20:49.112Z,528.00
2022-08-12T00:21:19.108Z,527.00
2022-08-12T00:21:49.107Z,527.00
2022-08-12T00:22:19.112Z,527.00
2022-08-12T00:22:59.238Z,527.00
2022-08-12T00:23:19.206Z,527.00
2022-08-12T00:23:49.249Z,527.00
2022-08-12T00:24:19.287Z,527.00
2022-08-12T00:24:49.322Z,526.00
2022-08-12T00:25:19.356Z,524.00
2022-08-12T00:25:55.850Z,525.00
2022-08-12T00:26:23.716Z,524.00
2022-08-12T00:26:49.491Z,521.00
2022-08-12T00:27:19.522Z,521.00
2022-08-12T00:27:49.551Z,519.00
2022-08-12T00:28:19.587Z,520.00
2022-08-12T00:28:49.622Z,521.00
2022-08-12T00:29:19.655Z,520.00
2022-08-12T00:29:49.700Z,521.00
2022-08-12T00:30:19.744Z,523.00
2022-08-12T00:30:49.773Z,523.00
2022-08-12T00:31:19.804Z,521.00
2022-08-12T00:31:49.849Z,522.00
2022-08-12T00:32:35.135Z,522.00
2022-08-12T00:32:54.599Z,523.00
2022-08-12T00:33:19.980Z,522.00
2022-08-12T00:33:52.448Z,521.00
2022-08-12T00:34:20.097Z,522.00
2022-08-12T00:34:50.130Z,520.00
2022-08-12T00:35:20.173Z,519.00
2022-08-12T00:35:50.256Z,520.00
2022-08-12T00:36:35.143Z,521.00
2022-08-12T00:36:50.641Z,521.00
2022-08-12T00:37:20.427Z,519.00
2022-08-12T00:37:50.484Z,520.00
2022-08-12T00:38:20.566Z,522.00
2022-08-12T00:38:50.646Z,523.00
2022-08-12T00:39:20.735Z,522.00
2022-08-12T00:39:50.826Z,524.00
2022-08-12T00:40:20.858Z,526.00
2022-08-12T00:40:50.886Z,528.00
2022-08-12T00:41:20.915Z,528.00
2022-08-12T00:41:50.948Z,530.00
2022-08-12T00:42:20.985Z,530.00
2022-08-12T00:42:51.015Z,530.00
2022-08-12T00:43:21.052Z,531.00
2022-08-12T00:43:51.088Z,531.00
2022-08-12T00:44:21.141Z,531.00
2022-08-12T00:44:51.223Z,529.00
2022-08-12T00:45:21.265Z,529.00
2022-08-12T00:45:51.292Z,531.00
2022-08-12T00:46:21.328Z,532.00
2022-08-12T00:46:51.371Z,531.00
2022-08-12T00:47:24.574Z,531.00
2022-08-12T00:47:51.400Z,530.00
2022-08-12T00:48:21.443Z,527.00
2022-08-12T00:48:51.474Z,527.00
2022-08-12T00:49:21.505Z,526.00
2022-08-12T00:49:51.543Z,526.00
2022-08-12T00:50:21.576Z,527.00
2022-08-12T00:50:51.612Z,526.00
2022-08-12T00:51:21.643Z,527.00
2022-08-12T00:51:51.716Z,526.00
2022-08-12T00:52:21.791Z,525.00
2022-08-12T00:52:51.825Z,525.00
2022-08-12T00:53:21.859Z,524.00
2022-08-12T00:53:51.896Z,525.00
2022-08-12T00:54:21.933Z,526.00
2022-08-12T00:54:51.976Z,523.00
2022-08-12T00:55:22.011Z,523.00
2022-08-12T00:55:52.039Z,523.00
2022-08-12T00:56:22.073Z,523.00
2022-08-12T00:56:52.112Z,522.00
2022-08-12T00:57:22.138Z,521.00
2022-08-12T00:57:52.169Z,521.00
2022-08-12T00:58:22.203Z,520.00
2022-08-12T00:58:52.237Z,520.00
2022-08-12T00:59:22.275Z,518.00
2022-08-12T00:59:52.316Z,517.00
2022-08-12T01:00:22.350Z,517.00
2022-08-12T01:00:52.456Z,519.00
2022-08-12T01:01:22.589Z,516.00
2022-08-12T01:02:02.504Z,517.00
2022-08-12T01:02:22.720Z,519.00
2022-08-12T01:02:52.705Z,520.00
2022-08-12T01:03:22.722Z,520.00
2022-08-12T01:03:52.755Z,518.00
2022-08-12T01:04:22.809Z,517.00
2022-08-12T01:04:52.925Z,515.00
2022-08-12T01:05:22.950Z,516.00
2022-08-12T01:05:52.994Z,517.00
2022-08-12T01:06:23.021Z,517.00
2022-08-12T01:06:53.763Z,516.00
2022-08-12T01:07:23.058Z,515.00
2022-08-12T01:07:53.096Z,516.00
2022-08-12T01:08:23.130Z,516.00
2022-08-12T01:08:53.162Z,515.00
2022-08-12T01:09:23.207Z,514.00
2022-08-12T01:09:53.246Z,514.00
2022-08-12T01:10:27.522Z,516.00
2022-08-12T01:10:53.332Z,516.00
2022-08-12T01:11:23.370Z,515.00
2022-08-12T01:11:53.408Z,515.00
2022-08-12T01:12:23.421Z,514.00
2022-08-12T01:12:53.542Z,515.00
2022-08-12T01:13:23.538Z,516.00
2022-08-12T01:13:53.538Z,516.00
2022-08-12T01:14:23.537Z,516.00
2022-08-12T01:14:53.538Z,516.00
2022-08-12T01:15:23.546Z,516.00
2022-08-12T01:15:53.537Z,516.00
2022-08-12T01:16:23.534Z,516.00
2022-08-12T01:16:53.528Z,515.00
2022-08-12T01:17:23.528Z,514.00
2022-08-12T01:17:53.525Z,515.00
2022-08-12T01:18:23.531Z,512.00
2022-08-12T01:18:53.647Z,512.00
2022-08-12T01:19:23.652Z,513.00
2022-08-12T01:19:53.671Z,511.00
2022-08-12T01:20:23.667Z,513.00
2022-08-12T01:20:53.782Z,511.00
2022-08-12T01:21:23.782Z,513.00
2022-08-12T01:21:53.788Z,514.00
2022-08-12T01:22:23.802Z,515.00
2022-08-12T01:22:53.833Z,516.00
2022-08-12T01:23:23.873Z,515.00
2022-08-12T01:23:53.904Z,515.00
2022-08-12T01:24:30.751Z,515.00
2022-08-12T01:24:53.999Z,516.00
2022-08-12T01:25:24.030Z,516.00
2022-08-12T01:25:56.232Z,514.00
2022-08-12T01:26:24.122Z,514.00
2022-08-12T01:26:54.156Z,514.00
2022-08-12T01:27:24.188Z,515.00
2022-08-12T01:27:54.217Z,516.00
2022-08-12T01:28:24.257Z,517.00
2022-08-12T01:28:54.289Z,516.00
2022-08-12T01:29:24.380Z,515.00
2022-08-12T01:29:54.424Z,514.00
2022-08-12T01:30:24.451Z,514.00
2022-08-12T01:30:54.479Z,515.00
2022-08-12T01:31:24.521Z,515.00
2022-08-12T01:31:54.551Z,516.00
2022-08-12T01:32:24.586Z,517.00
2022-08-12T01:32:54.615Z,516.00
2022-08-12T01:33:24.652Z,516.00
2022-08-12T01:33:54.685Z,516.00
2022-08-12T01:34:36.400Z,516.00
2022-08-12T01:34:54.775Z,515.00
2022-08-12T01:35:24.806Z,514.00
2022-08-12T01:35:57.854Z,515.00
2022-08-12T01:36:24.886Z,516.00
2022-08-12T01:36:54.919Z,516.00
2022-08-12T01:37:24.948Z,517.00
2022-08-12T01:37:54.982Z,517.00
2022-08-12T01:38:29.986Z,516.00
2022-08-12T01:38:55.070Z,518.00
2022-08-12T01:39:25.157Z,521.00
2022-08-12T01:40:34.098Z,522.00
2022-08-12T01:40:34.488Z,523.00
2022-08-12T01:40:55.375Z,523.00
2022-08-12T01:41:25.290Z,523.00
2022-08-12T01:41:55.317Z,522.00
2022-08-12T01:42:25.354Z,520.00
2022-08-12T01:42:55.386Z,519.00
2022-08-12T01:43:25.419Z,515.00
2022-08-12T01:43:55.465Z,515.00
2022-08-12T01:44:25.490Z,514.00
2022-08-12T01:44:55.524Z,517.00
2022-08-12T01:45:25.558Z,516.00
2022-08-12T01:45:57.639Z,515.00
2022-08-12T01:46:25.607Z,515.00
2022-08-12T01:46:55.645Z,515.00
2022-08-12T01:47:25.679Z,514.00
2022-08-12T01:47:55.710Z,515.00
2022-08-12T01:48:25.747Z,514.00
2022-08-12T01:48:55.782Z,515.00
2022-08-12T01:49:25.813Z,514.00
2022-08-12T01:49:55.846Z,515.00
2022-08-12T01:50:25.885Z,515.00
2022-08-12T01:50:58.412Z,514.00
2022-08-12T01:52:15.305Z,514.00
2022-08-12T01:52:21.656Z,513.00
2022-08-12T01:52:26.132Z,511.00
2022-08-12T01:52:56.134Z,509.00
2022-08-12T01:53:26.171Z,509.00
2022-08-12T01:53:56.208Z,509.00
2022-08-12T01:54:26.246Z,506.00
2022-08-12T01:54:56.285Z,506.00
2022-08-12T01:55:26.322Z,506.00
2022-08-12T01:55:56.353Z,504.00
2022-08-12T01:56:26.390Z,503.00
2022-08-12T01:56:56.424Z,505.00
2022-08-12T01:57:57.949Z,502.00
2022-08-12T01:57:59.699Z,504.00
2022-08-12T01:58:26.548Z,503.00
2022-08-12T01:58:56.651Z,503.00
2022-08-12T01:59:26.679Z,502.00
2022-08-12T01:59:56.718Z,505.00
2022-08-12T02:00:35.942Z,508.00
2022-08-12T02:00:56.906Z,510.00
2022-08-12T02:01:26.878Z,510.00
2022-08-12T02:01:56.964Z,511.00
2022-08-12T02:02:26.978Z,510.00
2022-08-12T02:02:57.005Z,509.00
2022-08-12T02:03:27.043Z,510.00
2022-08-12T02:03:57.081Z,509.00
2022-08-12T02:04:27.110Z,509.00
2022-08-12T02:04:57.260Z,510.00
2022-08-12T02:05:27.166Z,511.00
2022-08-12T02:05:57.204Z,511.00
2022-08-12T02:06:27.240Z,511.00
2022-08-12T02:06:57.275Z,512.00
2022-08-12T02:07:27.312Z,512.00
2022-08-12T02:07:57.350Z,513.00
2022-08-12T02:08:27.387Z,513.00
2022-08-12T02:08:57.422Z,513.00
2022-08-12T02:09:27.462Z,513.00
2022-08-12T02:09:57.496Z,515.00
2022-08-12T02:10:51.255Z,515.00
2022-08-12T02:10:57.585Z,515.00
2022-08-12T02:11:27.619Z,516.00
2022-08-12T02:11:58.846Z,516.00
2022-08-12T02:12:31.262Z,516.00
2022-08-12T02:12:57.742Z,516.00
2022-08-12T02:13:33.239Z,516.00
2022-08-12T02:13:57.767Z,516.00
2022-08-12T02:14:27.766Z,514.00
2022-08-12T02:14:57.767Z,514.00
2022-08-12T02:15:27.825Z,513.00
2022-08-12T02:15:57.818Z,513.00
2022-08-12T02:16:27.819Z,513.00
2022-08-12T02:16:57.815Z,513.00
2022-08-12T02:17:55.410Z,515.00
2022-08-12T02:17:57.824Z,515.00
2022-08-12T02:18:27.820Z,517.00
2022-08-12T02:18:57.934Z,516.00
2022-08-12T02:19:27.963Z,515.00
2022-08-12T02:19:57.965Z,513.00
2022-08-12T02:20:35.304Z,513.00
2022-08-12T02:20:58.030Z,513.00
2022-08-12T02:21:28.031Z,511.00
2022-08-12T02:21:58.029Z,510.00
2022-08-12T02:22:28.052Z,510.00
2022-08-12T02:22:58.078Z,512.00
2022-08-12T02:23:28.267Z,511.00
2022-08-12T02:23:58.208Z,513.00
2022-08-12T02:24:28.429Z,513.00
2022-08-12T02:24:58.296Z,511.00
2022-08-12T02:25:28.418Z,511.00
2022-08-12T02:25:58.447Z,511.00
2022-08-12T02:26:28.486Z,511.00
2022-08-12T02:26:58.519Z,511.00
2022-08-12T02:27:28.551Z,512.00
2022-08-12T02:27:58.585Z,510.00
2022-08-12T02:28:28.684Z,508.00
2022-08-12T02:28:58.717Z,509.00
2022-08-12T02:29:28.748Z,508.00
2022-08-12T02:29:58.791Z,509.00
2022-08-12T02:30:41.710Z,511.00
2022-08-12T02:30:58.873Z,512.00
2022-08-12T02:31:28.909Z,510.00
2022-08-12T02:31:58.959Z,512.00
2022-08-12T02:32:28.992Z,513.00
2022-08-12T02:32:59.029Z,512.00
2022-08-12T02:33:29.063Z,511.00
2022-08-12T02:33:59.096Z,510.00
2022-08-12T02:34:29.126Z,511.00
2022-08-12T02:34:59.167Z,513.00
2022-08-12T02:35:29.202Z,514.00
2022-08-12T02:35:59.231Z,515.00
2022-08-12T02:36:29.266Z,515.00
2022-08-12T02:37:02.418Z,515.00
2022-08-12T02:37:29.380Z,515.00
2022-08-12T02:37:59.412Z,514.00
2022-08-12T02:38:29.447Z,514.00
2022-08-12T02:38:59.479Z,512.00
2022-08-12T02:39:29.524Z,511.00
2022-08-12T02:39:59.601Z,512.00
2022-08-12T02:40:29.628Z,512.00
2022-08-12T02:40:59.657Z,512.00
2022-08-12T02:41:29.694Z,513.00
2022-08-12T02:41:59.727Z,513.00
2022-08-12T02:42:29.760Z,515.00
2022-08-12T02:42:59.870Z,514.00
2022-08-12T02:43:29.903Z,514.00
2022-08-12T02:43:59.957Z,515.00
2022-08-12T02:44:30.042Z,514.00
2022-08-12T02:45:00.094Z,512.00
2022-08-12T02:45:30.023Z,513.00
2022-08-12T02:46:00.123Z,515.00
2022-08-12T02:46:30.177Z,515.00
2022-08-12T02:47:00.246Z,514.00
2022-08-12T02:48:00.357Z,515.00
2022-08-12T02:48:01.386Z,515.00
2022-08-12T02:48:30.487Z,515.00
2022-08-12T02:49:00.589Z,514.00
2022-08-12T02:49:30.644Z,513.00
2022-08-12T02:50:00.705Z,513.00
2022-08-12T02:50:30.795Z,514.00
2022-08-12T02:51:00.835Z,512.00
2022-08-12T02:51:30.882Z,513.00
2022-08-12T02:52:00.987Z,512.00
2022-08-12T02:52:31.133Z,509.00
2022-08-12T02:53:01.056Z,509.00
2022-08-12T02:53:31.092Z,510.00
2022-08-12T02:54:03.215Z,510.00
2022-08-12T02:54:31.148Z,509.00
2022-08-12T02:55:01.190Z,509.00
2022-08-12T02:55:34.788Z,511.00
2022-08-12T02:56:01.299Z,511.00
2022-08-12T02:56:31.336Z,511.00
2022-08-12T02:57:01.374Z,511.00
2022-08-12T02:57:31.410Z,510.00
2022-08-12T02:58:04.300Z,509.00
2022-08-12T02:58:33.175Z,509.00
2022-08-12T02:59:01.600Z,508.00
2022-08-12T02:59:31.636Z,508.00
2022-08-12T03:00:01.668Z,509.00
2022-08-12T03:00:31.715Z,509.00
2022-08-12T03:01:01.836Z,509.00
2022-08-12T03:01:31.885Z,509.00
2022-08-12T03:02:01.834Z,508.00
2022-08-12T03:02:31.873Z,508.00
2022-08-12T03:03:01.920Z,510.00
2022-08-12T03:03:31.955Z,509.00
2022-08-12T03:04:02.024Z,508.00
2022-08-12T03:04:32.076Z,505.00
2022-08-12T03:05:02.159Z,506.00
2022-08-12T03:05:32.242Z,507.00
2022-08-12T03:06:02.326Z,507.00
2022-08-12T03:06:32.376Z,509.00
2022-08-12T03:07:02.572Z,510.00
2022-08-12T03:07:56.324Z,510.00
2022-08-12T03:08:02.632Z,510.00
2022-08-12T03:08:33.293Z,511.00
2022-08-12T03:09:02.689Z,511.00
2022-08-12T03:09:39.079Z,513.00
2022-08-12T03:10:05.371Z,514.00
2022-08-12T03:10:37.680Z,515.00
2022-08-12T03:11:02.829Z,515.00
2022-08-12T03:11:32.881Z,514.00
2022-08-12T03:12:02.959Z,514.00
2022-08-12T03:12:33.968Z,512.00
2022-08-12T03:13:03.087Z,511.00
2022-08-12T03:13:33.118Z,511.00
2022-08-12T03:14:03.166Z,510.00
2022-08-12T03:14:33.196Z,511.00
2022-08-12T03:15:03.195Z,513.00
2022-08-12T03:15:33.241Z,514.00
2022-08-12T03:16:03.238Z,514.00
2022-08-12T03:16:33.575Z,515.00
2022-08-12T03:17:03.322Z,516.00
2022-08-12T03:17:33.441Z,516.00
2022-08-12T03:18:24.600Z,514.00
2022-08-12T03:18:33.456Z,512.00
2022-08-12T03:19:03.452Z,512.00
2022-08-12T03:19:33.456Z,513.00
2022-08-12T03:20:09.496Z,514.00
2022-08-12T03:20:33.489Z,513.00
2022-08-12T03:21:03.487Z,511.00
2022-08-12T03:21:53.047Z,509.00
2022-08-12T03:22:09.257Z,507.00
2022-08-12T03:22:33.560Z,506.00
2022-08-12T03:23:03.599Z,504.00
2022-08-12T03:23:33.637Z,505.00
2022-08-12T03:24:03.671Z,504.00
2022-08-12T03:24:33.711Z,504.00
2022-08-12T03:25:03.709Z,506.00
2022-08-12T03:25:33.800Z,507.00
2022-08-12T03:26:03.845Z,508.00
2022-08-12T03:26:33.874Z,508.00
2022-08-12T03:27:03.911Z,508.00
2022-08-12T03:27:33.953Z,509.00
2022-08-12T03:28:03.996Z,507.00
2022-08-12T03:28:34.023Z,506.00
2022-08-12T03:29:04.060Z,507.00
2022-08-12T03:29:43.245Z,508.00
2022-08-12T03:30:04.162Z,507.00
2022-08-12T03:30:34.205Z,509.00
2022-08-12T03:31:04.246Z,510.00
2022-08-12T03:31:34.279Z,511.00
2022-08-12T03:32:04.309Z,510.00
2022-08-12T03:32:36.402Z,510.00
2022-08-12T03:33:04.462Z,511.00
2022-08-12T03:33:34.494Z,509.00
2022-08-12T03:34:04.527Z,510.00
2022-08-12T03:34:34.565Z,509.00
2022-08-12T03:35:04.611Z,509.00
2022-08-12T03:35:40.287Z,509.00
2022-08-12T03:36:04.692Z,508.00
2022-08-12T03:36:34.924Z,509.00
2022-08-12T03:37:04.818Z,510.00
2022-08-12T03:37:34.856Z,512.00
2022-08-12T03:38:04.896Z,512.00
2022-08-12T03:38:34.926Z,512.00
2022-08-12T03:39:04.963Z,510.00
2022-08-12T03:39:36.250Z,510.00
2022-08-12T03:40:05.179Z,511.00
2022-08-12T03:40:35.097Z,512.00
2022-08-12T03:41:05.134Z,511.00
2022-08-12T03:41:35.170Z,511.00
2022-08-12T03:42:05.204Z,510.00
2022-08-12T03:42:35.303Z,510.00
2022-08-12T03:43:05.346Z,511.00
2022-08-12T03:43:35.383Z,510.00
2022-08-12T03:44:05.423Z,511.00
2022-08-12T03:44:35.460Z,512.00
2022-08-12T03:45:05.522Z,514.00
2022-08-12T03:45:35.632Z,514.00
2022-08-12T03:46:05.563Z,513.00
2022-08-12T03:46:35.594Z,512.00
2022-08-12T03:47:05.629Z,512.00
2022-08-12T03:47:35.672Z,514.00
2022-08-12T03:48:05.707Z,515.00
2022-08-12T03:48:35.749Z,515.00
2022-08-12T03:49:05.790Z,515.00
2022-08-12T03:49:35.827Z,515.00
2022-08-12T03:50:05.861Z,515.00
2022-08-12T03:50:35.916Z,517.00
2022-08-12T03:51:05.943Z,517.00
2022-08-12T03:51:35.974Z,521.00
2022-08-12T03:52:06.012Z,525.00
2022-08-12T03:52:36.056Z,527.00
2022-08-12T03:53:06.091Z,530.00
2022-08-12T03:53:36.128Z,530.00
2022-08-12T03:54:06.166Z,530.00
2022-08-12T03:54:39.364Z,530.00
2022-08-12T03:55:06.260Z,530.00
2022-08-12T03:55:36.302Z,530.00
2022-08-12T03:56:06.332Z,529.00
2022-08-12T03:56:36.441Z,529.00
2022-08-12T03:57:06.467Z,525.00
2022-08-12T03:57:36.513Z,522.00
2022-08-12T03:58:06.554Z,523.00
2022-08-12T03:58:36.587Z,522.00
2022-08-12T03:59:06.630Z,519.00
2022-08-12T03:59:36.688Z,518.00
2022-08-12T04:00:06.761Z,517.00
2022-08-12T04:00:36.887Z,515.00
2022-08-12T04:01:07.010Z,513.00
2022-08-12T04:01:40.561Z,512.00
2022-08-12T04:02:06.999Z,511.00
2022-08-12T04:02:37.036Z,510.00
2022-08-12T04:03:12.433Z,509.00
2022-08-12T04:03:37.132Z,510.00
2022-08-12T04:04:07.168Z,512.00
2022-08-12T04:04:37.202Z,513.00
2022-08-12T04:05:07.244Z,515.00
2022-08-12T04:05:55.214Z,517.00
2022-08-12T04:06:07.423Z,516.00
2022-08-12T04:06:37.566Z,516.00
2022-08-12T04:07:07.473Z,515.00
2022-08-12T04:07:37.505Z,518.00
2022-08-12T04:08:07.563Z,516.00
2022-08-12T04:08:37.602Z,516.00
2022-08-12T04:09:16.225Z,517.00
2022-08-12T04:09:37.682Z,521.00
2022-08-12T04:10:07.726Z,516.00
2022-08-12T04:10:37.758Z,514.00
2022-08-12T04:11:07.789Z,513.00
2022-08-12T04:11:37.828Z,511.00
2022-08-12T04:12:07.879Z,510.00
2022-08-12T04:12:37.874Z,509.00
2022-08-12T04:13:07.868Z,510.00
2022-08-12T04:13:37.984Z,512.00
2022-08-12T04:14:07.982Z,514.00
2022-08-12T04:14:37.982Z,517.00
2022-08-12T04:15:07.979Z,517.00
2022-08-12T04:15:38.164Z,516.00
2022-08-12T04:16:08.043Z,514.00
2022-08-12T04:16:38.036Z,516.00
2022-08-12T04:17:08.032Z,517.00
2022-08-12T04:17:38.032Z,518.00
2022-08-12T04:18:08.265Z,521.00
2022-08-12T04:18:38.153Z,519.00
2022-08-12T04:19:08.152Z,519.00
2022-08-12T04:19:38.151Z,520.00
2022-08-12T04:20:08.171Z,519.00
2022-08-12T04:20:38.188Z,520.00
2022-08-12T04:21:08.188Z,520.00
2022-08-12T04:21:38.192Z,520.00
2022-08-12T04:22:08.217Z,516.00
2022-08-12T04:22:38.498Z,515.00
2022-08-12T04:23:08.272Z,516.00
2022-08-12T04:23:38.337Z,516.00
2022-08-12T04:24:08.357Z,520.00
2022-08-12T04:24:40.906Z,522.00
2022-08-12T04:25:08.397Z,521.00
2022-08-12T04:25:38.451Z,521.00
2022-08-12T04:26:08.495Z,523.00
2022-08-12T04:26:38.530Z,523.00
2022-08-12T04:27:08.858Z,527.00
2022-08-12T04:27:38.606Z,525.00
2022-08-12T04:28:11.204Z,524.00
2022-08-12T04:28:38.756Z,523.00
2022-08-12T04:29:08.795Z,522.00
2022-08-12T04:30:21.111Z,524.00
2022-08-12T04:30:31.657Z,524.00
2022-08-12T04:30:38.947Z,521.00
2022-08-12T04:31:08.984Z,519.00
2022-08-12T04:31:39.015Z,521.00
2022-08-12T04:32:09.022Z,520.00
2022-08-12T04:32:44.128Z,515.00
2022-08-12T04:33:09.111Z,518.00
2022-08-12T04:33:39.158Z,517.00
2022-08-12T04:34:09.188Z,516.00
2022-08-12T04:34:39.219Z,516.00
2022-08-12T04:35:09.258Z,517.00
2022-08-12T04:35:39.306Z,519.00
2022-08-12T04:36:09.346Z,520.00
2022-08-12T04:36:39.380Z,522.00
2022-08-12T04:37:09.421Z,516.00
2022-08-12T04:37:58.290Z,515.00
2022-08-12T04:38:09.503Z,517.00
2022-08-12T04:38:39.544Z,517.00
2022-08-12T04:39:09.582Z,517.00
2022-08-12T04:39:39.669Z,518.00
2022-08-12T04:40:10.216Z,516.00
2022-08-12T04:40:39.638Z,514.00
2022-08-12T04:41:09.666Z,513.00
2022-08-12T04:41:39.706Z,512.00
2022-08-12T04:42:09.765Z,511.00
2022-08-12T04:42:39.970Z,512.00
2022-08-12T04:44:00.046Z,512.00
2022-08-12T04:44:01.423Z,513.00
2022-08-12T04:44:09.929Z,513.00
2022-08-12T04:44:39.971Z,512.00
2022-08-12T04:45:10.016Z,513.00
2022-08-12T04:45:40.138Z,513.00
2022-08-12T04:46:10.174Z,513.00
2022-08-12T04:46:40.208Z,519.00
2022-08-12T04:47:10.251Z,516.00
2022-08-12T04:47:40.287Z,512.00
2022-08-12T04:48:10.329Z,508.00
2022-08-12T04:48:40.407Z,507.00
2022-08-12T04:49:10.458Z,504.00
2022-08-12T04:49:40.519Z,503.00
2022-08-12T04:50:33.907Z,501.00
2022-08-12T04:50:40.620Z,498.00
2022-08-12T04:51:10.656Z,502.00
2022-08-12T04:51:40.690Z,500.00
2022-08-12T04:52:10.724Z,499.00
2022-08-12T04:52:40.761Z,497.00
2022-08-12T04:53:10.801Z,498.00
2022-08-12T04:53:40.848Z,496.00
2022-08-12T04:54:10.889Z,498.00
2022-08-12T04:54:40.922Z,498.00
2022-08-12T04:55:10.954Z,498.00
2022-08-12T04:55:41.008Z,496.00
2022-08-12T04:56:11.044Z,496.00
2022-08-12T04:56:41.089Z,495.00
2022-08-12T04:57:11.129Z,494.00
2022-08-12T04:57:41.179Z,496.00
2022-08-12T04:58:11.226Z,495.00
2022-08-12T04:58:41.266Z,492.00
2022-08-12T04:59:11.308Z,493.00
2022-08-12T04:59:46.793Z,493.00
2022-08-12T05:00:11.399Z,488.00
2022-08-12T05:00:41.458Z,480.00
2022-08-12T05:01:11.512Z,482.00
2022-08-12T05:01:41.536Z,487.00
2022-08-12T05:02:20.511Z,489.00
2022-08-12T05:02:41.847Z,488.00
2022-08-12T05:03:11.654Z,488.00
2022-08-12T05:03:46.260Z,484.00
2022-08-12T05:04:11.752Z,472.00
2022-08-12T05:04:41.788Z,488.00
2022-08-12T05:05:11.832Z,491.00
2022-08-12T05:05:41.879Z,494.00
2022-08-12T05:06:11.914Z,494.00
2022-08-12T05:06:41.966Z,498.00
2022-08-12T05:07:12.000Z,502.00
2022-08-12T05:07:47.821Z,504.00
2022-08-12T05:08:12.088Z,511.00
2022-08-12T05:08:42.131Z,504.00
2022-08-12T05:09:13.624Z,502.00
2022-08-12T05:09:59.457Z,506.00
2022-08-12T05:10:12.355Z,439.00
2022-08-12T05:10:42.379Z,487.00
2022-08-12T05:11:12.419Z,495.00
2022-08-12T05:11:53.544Z,504.00
2022-08-12T05:12:12.512Z,497.00
2022-08-12T05:12:42.801Z,503.00
2022-08-12T05:13:12.629Z,434.00
2022-08-12T05:13:42.615Z,471.00
2022-08-12T05:14:12.610Z,488.00
2022-08-12T05:14:42.705Z,484.00
2022-08-12T05:15:21.221Z,484.00
2022-08-12T05:16:04.666Z,491.00
2022-08-12T05:16:12.746Z,458.00
2022-08-12T05:16:42.739Z,456.00
2022-08-12T05:17:12.756Z,483.00
2022-08-12T05:17:42.770Z,456.00
2022-08-12T05:18:19.268Z,468.00
2022-08-12T05:18:45.822Z,474.00
2022-08-12T05:19:18.762Z,487.00
2022-08-12T05:19:43.424Z,485.00
2022-08-12T05:20:12.923Z,499.00
2022-08-12T05:20:42.935Z,491.00
2022-08-12T05:21:12.931Z,483.00
2022-08-12T05:21:42.924Z,481.00
2022-08-12T05:22:12.938Z,463.00
2022-08-12T05:22:43.262Z,478.00
2022-08-12T05:23:13.818Z,477.00
2022-08-12T05:23:42.997Z,481.00
2022-08-12T05:24:13.031Z,481.00
2022-08-12T05:24:43.064Z,484.00
2022-08-12T05:25:13.109Z,487.00
2022-08-12T05:25:43.495Z,485.00
2022-08-12T05:26:13.242Z,490.00
2022-08-12T05:26:43.280Z,491.00
2022-08-12T05:27:13.319Z,504.00
2022-08-12T05:27:55.538Z,502.00
2022-08-12T05:28:13.405Z,497.00
2022-08-12T05:28:43.436Z,499.00
2022-08-12T05:30:06.789Z,454.00
2022-08-12T05:30:07.352Z,496.00
2022-08-12T05:30:13.590Z,498.00
2022-08-12T05:30:43.659Z,497.00
2022-08-12T05:31:13.703Z,505.00
2022-08-12T05:31:48.045Z,509.00
2022-08-12T05:32:13.808Z,512.00
2022-08-12T05:32:43.849Z,508.00
2022-08-12T05:33:13.950Z,511.00
2022-08-12T05:33:43.925Z,501.00
2022-08-12T05:34:13.953Z,488.00
2022-08-12T05:34:43.991Z,493.00
2022-08-12T05:35:14.029Z,492.00
2022-08-12T05:35:44.092Z,496.00
2022-08-12T05:36:14.121Z,486.00
2022-08-12T05:36:44.159Z,489.00
2022-08-12T05:37:14.197Z,489.00
2022-08-12T05:37:44.231Z,493.00
2022-08-12T05:38:14.267Z,497.00
2022-08-12T05:38:44.306Z,500.00
2022-08-12T05:39:14.392Z,502.00
2022-08-12T05:39:44.554Z,494.00
2022-08-12T05:40:14.453Z,495.00
2022-08-12T05:40:44.510Z,495.00
2022-08-12T05:41:14.552Z,499.00
2022-08-12T05:41:44.604Z,494.00
2022-08-12T05:42:14.634Z,493.00
2022-08-12T05:42:44.914Z,492.00
2022-08-12T05:43:14.751Z,493.00
2022-08-12T05:43:44.784Z,493.00
2022-08-12T05:44:14.834Z,496.00
2022-08-12T05:44:44.879Z,497.00
2022-08-12T05:45:14.919Z,499.00
2022-08-12T05:45:45.091Z,500.00
2022-08-12T05:46:15.134Z,504.00
2022-08-12T05:46:45.208Z,506.00
2022-08-12T05:47:15.246Z,506.00
2022-08-12T05:47:53.253Z,506.00
2022-08-12T05:48:15.411Z,504.00
2022-08-12T05:48:45.452Z,502.00
2022-08-12T05:49:15.495Z,500.00
2022-08-12T05:49:45.570Z,498.00
2022-08-12T05:50:15.657Z,498.00
2022-08-12T05:50:45.737Z,498.00
2022-08-12T05:51:15.809Z,496.00
2022-08-12T05:51:45.877Z,497.00
2022-08-12T05:52:15.926Z,495.00
2022-08-12T05:52:45.984Z,493.00
2022-08-12T05:53:15.973Z,494.00
2022-08-12T05:53:46.022Z,494.00
2022-08-12T05:54:16.082Z,494.00
2022-08-12T05:54:57.233Z,492.00
2022-08-12T05:55:16.180Z,491.00
2022-08-12T05:55:46.451Z,490.00
2022-08-12T05:56:16.238Z,489.00
2022-08-12T05:56:46.280Z,490.00
2022-08-12T05:57:16.327Z,489.00
2022-08-12T05:57:46.367Z,490.00
2022-08-12T05:58:16.406Z,489.00
2022-08-12T05:58:46.442Z,488.00
2022-08-12T05:59:16.537Z,488.00
2022-08-12T05:59:46.581Z,487.00
2022-08-12T06:00:16.621Z,485.00
2022-08-12T06:00:46.678Z,485.00
2022-08-12T06:02:09.424Z,485.00
2022-08-12T06:02:12.346Z,485.00
2022-08-12T06:02:16.875Z,485.00
2022-08-12T06:02:47.005Z,485.00
2022-08-12T06:03:17.047Z,485.00
2022-08-12T06:03:47.008Z,485.00
2022-08-12T06:04:17.073Z,488.00
2022-08-12T06:04:47.157Z,489.00
2022-08-12T06:05:17.236Z,488.00
2022-08-12T06:05:55.721Z,489.00
2022-08-12T06:06:17.387Z,486.00
2022-08-12T06:06:47.349Z,486.00
2022-08-12T06:07:59.970Z,484.00
2022-08-12T06:08:02.343Z,484.00
2022-08-12T06:08:17.466Z,484.00
2022-08-12T06:08:47.509Z,485.00
2022-08-12T06:09:17.647Z,485.00
2022-08-12T06:09:47.559Z,485.00
2022-08-12T06:10:17.615Z,486.00
2022-08-12T06:10:47.732Z,485.00
2022-08-12T06:11:17.726Z,485.00
2022-08-12T06:11:54.020Z,485.00
2022-08-12T06:12:17.875Z,486.00
2022-08-12T06:12:47.919Z,486.00
2022-08-12T06:13:28.260Z,487.00
2022-08-12T06:13:54.398Z,486.00
2022-08-12T06:14:17.964Z,485.00
2022-08-12T06:14:48.009Z,483.00